sensor_id;sensor_type;location;lat;lon;timestamp;pressure;altitude;pressure_sealevel;temperature;humidity
46756;BME280;32506;52.826;-1.192;2023-04-07T00:01:18;101233.25;;;6.79;48.22
46756;BME280;32506;52.826;-1.192;2023-04-07T00:03:44;101240.91;;;6.74;47.78
46756;BME280;32506;52.826;-1.192;2023-04-07T00:06:09;101236.78;;;6.71;47.35
46756;BME280;32506;52.826;-1.192;2023-04-07T00:08:35;101236.44;;;6.66;48.06
46756;BME280;32506;52.826;-1.192;2023-04-07T00:11:00;101238.63;;;6.62;48.36
46756;BME280;32506;52.826;-1.192;2023-04-07T00:13:26;101241.78;;;6.58;48.32
46756;BME280;32506;52.826;-1.192;2023-04-07T00:15:51;101246.47;;;6.55;48.09
46756;BME280;32506;52.826;-1.192;2023-04-07T00:18:17;101240.81;;;6.50;48.09
46756;BME280;32506;52.826;-1.192;2023-04-07T00:20:42;101245.63;;;6.47;48.05
46756;BME280;32506;52.826;-1.192;2023-04-07T00:23:08;101247.78;;;6.43;48.14
46756;BME280;32506;52.826;-1.192;2023-04-07T00:25:33;101245.47;;;6.40;48.17
46756;BME280;32506;52.826;-1.192;2023-04-07T00:27:59;101244.34;;;6.34;48.34
46756;BME280;32506;52.826;-1.192;2023-04-07T00:30:24;101246.31;;;6.32;48.50
46756;BME280;32506;52.826;-1.192;2023-04-07T00:32:50;101256.47;;;6.29;48.19
46756;BME280;32506;52.826;-1.192;2023-04-07T00:35:16;101250.66;;;6.25;48.53
46756;BME280;32506;52.826;-1.192;2023-04-07T00:37:41;101257.97;;;6.23;48.08
46756;BME280;32506;52.826;-1.192;2023-04-07T00:40:07;101255.81;;;6.18;48.48
46756;BME280;32506;52.826;-1.192;2023-04-07T00:42:33;101253.31;;;6.17;48.15
46756;BME280;32506;52.826;-1.192;2023-04-07T00:44:59;101260.78;;;6.13;48.64
46756;BME280;32506;52.826;-1.192;2023-04-07T00:47:24;101266.44;;;6.10;48.46
46756;BME280;32506;52.826;-1.192;2023-04-07T00:49:50;101265.75;;;6.08;48.92
46756;BME280;32506;52.826;-1.192;2023-04-07T00:52:16;101268.75;;;6.05;49.21
46756;BME280;32506;52.826;-1.192;2023-04-07T00:54:43;101266.44;;;6.02;48.55
46756;BME280;32506;52.826;-1.192;2023-04-07T00:57:11;101268.41;;;6.00;48.66
46756;BME280;32506;52.826;-1.192;2023-04-07T00:59:36;101259.09;;;5.96;49.12
46756;BME280;32506;52.826;-1.192;2023-04-07T01:02:31;101261.09;;;5.94;49.37
46756;BME280;32506;52.826;-1.192;2023-04-07T01:08:18;101267.06;;;5.87;49.07
46756;BME280;32506;52.826;-1.192;2023-04-07T01:10:51;101275.34;;;5.84;49.66
46756;BME280;32506;52.826;-1.192;2023-04-07T01:15:59;101271.69;;;5.77;49.64
46756;BME280;32506;52.826;-1.192;2023-04-07T01:18:30;101278.13;;;5.75;49.58
46756;BME280;32506;52.826;-1.192;2023-04-07T01:21:02;101267.84;;;5.71;49.94
46756;BME280;32506;52.826;-1.192;2023-04-07T01:26:25;101263.06;;;5.67;49.88
46756;BME280;32506;52.826;-1.192;2023-04-07T01:29:06;101261.56;;;5.64;49.65
46756;BME280;32506;52.826;-1.192;2023-04-07T01:31:38;101272.47;;;5.61;49.50
46756;BME280;32506;52.826;-1.192;2023-04-07T01:34:05;101272.66;;;5.60;49.88
46756;BME280;32506;52.826;-1.192;2023-04-07T01:36:33;101273.78;;;5.57;49.60
46756;BME280;32506;52.826;-1.192;2023-04-07T01:39:00;101276.78;;;5.54;49.83
46756;BME280;32506;52.826;-1.192;2023-04-07T01:41:26;101284.09;;;5.52;50.19
46756;BME280;32506;52.826;-1.192;2023-04-07T01:43:53;101276.25;;;5.50;50.14
46756;BME280;32506;52.826;-1.192;2023-04-07T01:46:19;101280.91;;;5.48;49.71
46756;BME280;32506;52.826;-1.192;2023-04-07T01:48:47;101280.25;;;5.46;49.90
46756;BME280;32506;52.826;-1.192;2023-04-07T01:51:13;101284.03;;;5.44;49.41
46756;BME280;32506;52.826;-1.192;2023-04-07T01:53:44;101281.56;;;5.42;49.69
46756;BME280;32506;52.826;-1.192;2023-04-07T01:56:10;101281.88;;;5.39;49.83
46756;BME280;32506;52.826;-1.192;2023-04-07T01:58:36;101286.50;;;5.37;49.66
46756;BME280;32506;52.826;-1.192;2023-04-07T02:01:02;101283.38;;;5.33;49.79
46756;BME280;32506;52.826;-1.192;2023-04-07T02:06:03;101294.44;;;5.29;49.69
46756;BME280;32506;52.826;-1.192;2023-04-07T02:08:31;101292.13;;;5.26;49.45
46756;BME280;32506;52.826;-1.192;2023-04-07T02:10:58;101283.66;;;5.22;49.82
46756;BME280;32506;52.826;-1.192;2023-04-07T02:13:26;101288.28;;;5.20;49.82
46756;BME280;32506;52.826;-1.192;2023-04-07T02:15:53;101291.25;;;5.17;49.58
46756;BME280;32506;52.826;-1.192;2023-04-07T02:18:20;101293.22;;;5.15;49.46
46756;BME280;32506;52.826;-1.192;2023-04-07T02:20:47;101292.72;;;5.11;49.70
46756;BME280;32506;52.826;-1.192;2023-04-07T02:23:14;101290.38;;;5.08;49.80
46756;BME280;32506;52.826;-1.192;2023-04-07T02:25:40;101293.19;;;5.07;49.58
46756;BME280;32506;52.826;-1.192;2023-04-07T02:28:06;101296.16;;;5.03;49.51
46756;BME280;32506;52.826;-1.192;2023-04-07T02:30:32;101296.47;;;5.00;49.86
46756;BME280;32506;52.826;-1.192;2023-04-07T02:32:57;101293.16;;;4.98;50.18
46756;BME280;32506;52.826;-1.192;2023-04-07T02:35:23;101293.47;;;4.95;50.03
46756;BME280;32506;52.826;-1.192;2023-04-07T02:37:49;101299.78;;;4.94;50.04
46756;BME280;32506;52.826;-1.192;2023-04-07T02:40:15;101300.91;;;4.92;50.04
46756;BME280;32506;52.826;-1.192;2023-04-07T02:42:41;101301.22;;;4.88;49.96
46756;BME280;32506;52.826;-1.192;2023-04-07T02:45:08;101308.50;;;4.86;50.53
46756;BME280;32506;52.826;-1.192;2023-04-07T02:47:34;101313.97;;;4.85;50.27
46756;BME280;32506;52.826;-1.192;2023-04-07T02:50:01;101303.50;;;4.83;51.05
46756;BME280;32506;52.826;-1.192;2023-04-07T02:52:26;101303.66;;;4.82;51.02
46756;BME280;32506;52.826;-1.192;2023-04-07T02:54:52;101295.88;;;4.80;51.10
46756;BME280;32506;52.826;-1.192;2023-04-07T02:57:18;101288.09;;;4.79;51.12
46756;BME280;32506;52.826;-1.192;2023-04-07T02:59:43;101276.00;;;4.76;51.34
46756;BME280;32506;52.826;-1.192;2023-04-07T03:02:09;101276.16;;;4.75;51.25
46756;BME280;32506;52.826;-1.192;2023-04-07T03:04:34;101278.81;;;4.75;51.27
46756;BME280;32506;52.826;-1.192;2023-04-07T03:07:00;101283.56;;;4.71;51.04
46756;BME280;32506;52.826;-1.192;2023-04-07T03:09:26;101288.06;;;4.70;50.80
46756;BME280;32506;52.826;-1.192;2023-04-07T03:11:51;101292.66;;;4.68;50.89
46756;BME280;32506;52.826;-1.192;2023-04-07T03:14:17;101292.00;;;4.66;50.75
46756;BME280;32506;52.826;-1.192;2023-04-07T03:16:42;101298.44;;;4.64;50.66
46756;BME280;32506;52.826;-1.192;2023-04-07T03:19:08;101299.56;;;4.61;50.37
46756;BME280;32506;52.826;-1.192;2023-04-07T03:21:35;101292.78;;;4.59;50.33
46756;BME280;32506;52.826;-1.192;2023-04-07T03:24:01;101292.25;;;4.55;50.29
46756;BME280;32506;52.826;-1.192;2023-04-07T03:26:26;101291.59;;;4.53;50.11
46756;BME280;32506;52.826;-1.192;2023-04-07T03:28:52;101293.53;;;4.51;50.18
46756;BME280;32506;52.826;-1.192;2023-04-07T03:31:17;101303.63;;;4.47;50.50
46756;BME280;32506;52.826;-1.192;2023-04-07T03:33:43;101309.06;;;4.46;50.07
46756;BME280;32506;52.826;-1.192;2023-04-07T03:36:08;101311.03;;;4.44;50.17
46756;BME280;32506;52.826;-1.192;2023-04-07T03:38:34;101304.25;;;4.41;49.80
46756;BME280;32506;52.826;-1.192;2023-04-07T03:40:59;101302.72;;;4.39;49.87
46756;BME280;32506;52.826;-1.192;2023-04-07T03:43:25;101309.16;;;4.36;49.90
46756;BME280;32506;52.826;-1.192;2023-04-07T03:45:53;101319.09;;;4.34;49.82
46756;BME280;32506;52.826;-1.192;2023-04-07T03:48:19;101308.78;;;4.31;49.92
46756;BME280;32506;52.826;-1.192;2023-04-07T03:50:45;101312.56;;;4.28;49.80
46756;BME280;32506;52.826;-1.192;2023-04-07T03:53:11;101318.16;;;4.25;49.96
46756;BME280;32506;52.826;-1.192;2023-04-07T03:55:39;101320.97;;;4.24;49.72
46756;BME280;32506;52.826;-1.192;2023-04-07T03:58:05;101330.88;;;4.22;49.43
46756;BME280;32506;52.826;-1.192;2023-04-07T04:00:30;101319.78;;;4.18;49.52
46756;BME280;32506;52.826;-1.192;2023-04-07T04:02:58;101323.56;;;4.15;49.57
46756;BME280;32506;52.826;-1.192;2023-04-07T04:05:24;101319.41;;;4.13;49.43
46756;BME280;32506;52.826;-1.192;2023-04-07T04:07:49;101317.88;;;4.10;49.47
46756;BME280;32506;52.826;-1.192;2023-04-07T04:10:17;101336.56;;;4.09;49.57
46756;BME280;32506;52.826;-1.192;2023-04-07T04:12:43;101328.25;;;4.03;49.53
46756;BME280;32506;52.826;-1.192;2023-04-07T04:15:09;101329.22;;;4.02;49.15
46756;BME280;32506;52.826;-1.192;2023-04-07T04:17:34;101335.63;;;4.00;49.36
46756;BME280;32506;52.826;-1.192;2023-04-07T04:20:00;101327.19;;;3.96;49.46
46756;BME280;32506;52.826;-1.192;2023-04-07T04:22:25;101330.81;;;3.95;49.51
46756;BME280;32506;52.826;-1.192;2023-04-07T04:24:51;101331.13;;;3.92;49.55
46756;BME280;32506;52.826;-1.192;2023-04-07T04:27:16;101338.38;;;3.90;49.60
46756;BME280;32506;52.826;-1.192;2023-04-07T04:29:42;101332.38;;;3.88;49.52
46756;BME280;32506;52.826;-1.192;2023-04-07T04:32:07;101346.59;;;3.87;49.68
46756;BME280;32506;52.826;-1.192;2023-04-07T04:34:32;101340.78;;;3.83;49.54
46756;BME280;32506;52.826;-1.192;2023-04-07T04:36:58;101342.75;;;3.81;49.68
46756;BME280;32506;52.826;-1.192;2023-04-07T04:39:23;101347.34;;;3.79;49.64
46756;BME280;32506;52.826;-1.192;2023-04-07T04:41:49;101344.00;;;3.77;49.48
46756;BME280;32506;52.826;-1.192;2023-04-07T04:44:15;101349.44;;;3.76;49.49
46756;BME280;32506;52.826;-1.192;2023-04-07T04:46:40;101353.22;;;3.73;49.46
46756;BME280;32506;52.826;-1.192;2023-04-07T04:49:06;101361.47;;;3.70;49.52
46756;BME280;32506;52.826;-1.192;2023-04-07T04:51:31;101362.44;;;3.69;49.19
46756;BME280;32506;52.826;-1.192;2023-04-07T04:53:56;101368.03;;;3.66;49.41
46756;BME280;32506;52.826;-1.192;2023-04-07T04:56:22;101374.28;;;3.65;49.27
46756;BME280;32506;52.826;-1.192;2023-04-07T04:58:47;101378.06;;;3.62;49.47
46756;BME280;32506;52.826;-1.192;2023-04-07T05:01:13;101378.22;;;3.61;49.49
46756;BME280;32506;52.826;-1.192;2023-04-07T05:03:39;101378.34;;;3.59;49.47
46756;BME280;32506;52.826;-1.192;2023-04-07T05:06:05;101378.66;;;3.56;49.20
46756;BME280;32506;52.826;-1.192;2023-04-07T05:08:30;101377.97;;;3.54;49.61
46756;BME280;32506;52.826;-1.192;2023-04-07T05:10:56;101376.44;;;3.51;49.36
46756;BME280;32506;52.826;-1.192;2023-04-07T05:13:21;101381.06;;;3.49;49.63
46756;BME280;32506;52.826;-1.192;2023-04-07T05:15:47;101381.22;;;3.48;49.14
46756;BME280;32506;52.826;-1.192;2023-04-07T05:18:12;101377.88;;;3.46;49.30
46756;BME280;32506;52.826;-1.192;2023-04-07T05:20:38;101379.81;;;3.44;49.54
46756;BME280;32506;52.826;-1.192;2023-04-07T05:23:03;101390.38;;;3.44;49.44
46756;BME280;32506;52.826;-1.192;2023-04-07T05:25:29;101392.50;;;3.40;49.50
46756;BME280;32506;52.826;-1.192;2023-04-07T05:27:56;101392.66;;;3.39;49.60
46756;BME280;32506;52.826;-1.192;2023-04-07T05:30:22;101400.69;;;3.37;49.50
46756;BME280;32506;52.826;-1.192;2023-04-07T05:32:47;101403.63;;;3.34;49.73
46756;BME280;32506;52.826;-1.192;2023-04-07T05:35:13;101407.25;;;3.33;49.56
46756;BME280;32506;52.826;-1.192;2023-04-07T05:37:38;101415.34;;;3.31;49.66
46756;BME280;32506;52.826;-1.192;2023-04-07T05:40:05;101406.59;;;3.31;49.80
46756;BME280;32506;52.826;-1.192;2023-04-07T05:42:31;101409.38;;;3.29;49.65
46756;BME280;32506;52.826;-1.192;2023-04-07T05:44:56;101418.41;;;3.27;49.92
46756;BME280;32506;52.826;-1.192;2023-04-07T05:47:21;101413.13;;;3.27;50.01
46756;BME280;32506;52.826;-1.192;2023-04-07T05:49:47;101428.13;;;3.26;50.02
46756;BME280;32506;52.826;-1.192;2023-04-07T05:52:13;101415.06;;;3.25;49.94
46756;BME280;32506;52.826;-1.192;2023-04-07T05:54:38;101413.44;;;3.24;49.91
46756;BME280;32506;52.826;-1.192;2023-04-07T05:57:07;101417.72;;;3.25;50.51
46756;BME280;32506;52.826;-1.192;2023-04-07T05:59:33;101416.06;;;3.24;50.23
46756;BME280;32506;52.826;-1.192;2023-04-07T06:01:59;101420.50;;;3.23;50.39
46756;BME280;32506;52.826;-1.192;2023-04-07T06:04:25;101423.16;;;3.23;50.39
46756;BME280;32506;52.826;-1.192;2023-04-07T06:06:50;101421.47;;;3.22;50.31
46756;BME280;32506;52.826;-1.192;2023-04-07T06:09:23;101425.78;;;3.23;50.51
46756;BME280;32506;52.826;-1.192;2023-04-07T06:11:48;101439.00;;;3.23;50.47
46756;BME280;32506;52.826;-1.192;2023-04-07T06:14:16;101430.25;;;3.23;50.58
46756;BME280;32506;52.826;-1.192;2023-04-07T06:16:41;101438.03;;;3.24;50.49
46756;BME280;32506;52.826;-1.192;2023-04-07T06:19:07;101433.56;;;3.25;50.69
46756;BME280;32506;52.826;-1.192;2023-04-07T06:21:32;101438.84;;;3.25;50.78
46756;BME280;32506;52.826;-1.192;2023-04-07T06:23:58;101448.47;;;3.26;50.75
46756;BME280;32506;52.826;-1.192;2023-04-07T06:26:24;101448.47;;;3.26;50.58
46756;BME280;32506;52.826;-1.192;2023-04-07T06:28:50;101454.44;;;3.28;51.08
46756;BME280;32506;52.826;-1.192;2023-04-07T06:31:16;101457.09;;;3.28;51.13
46756;BME280;32506;52.826;-1.192;2023-04-07T06:33:43;101451.66;;;3.29;51.05
46756;BME280;32506;52.826;-1.192;2023-04-07T06:36:08;101462.06;;;3.31;51.09
46756;BME280;32506;52.826;-1.192;2023-04-07T06:38:34;101464.72;;;3.31;51.09
46756;BME280;32506;52.826;-1.192;2023-04-07T06:40:59;101470.81;;;3.31;50.97
46756;BME280;32506;52.826;-1.192;2023-04-07T06:43:25;101473.19;;;3.34;51.40
46756;BME280;32506;52.826;-1.192;2023-04-07T06:45:50;101468.72;;;3.35;51.38
46756;BME280;32506;52.826;-1.192;2023-04-07T06:48:16;101480.13;;;3.35;51.45
46756;BME280;32506;52.826;-1.192;2023-04-07T06:50:45;101476.50;;;3.36;51.47
46756;BME280;32506;52.826;-1.192;2023-04-07T06:53:10;101484.16;;;3.40;51.60
46756;BME280;32506;52.826;-1.192;2023-04-07T06:55:36;101475.25;;;3.41;51.42
46756;BME280;32506;52.826;-1.192;2023-04-07T06:58:01;101483.88;;;3.43;51.79
46756;BME280;32506;52.826;-1.192;2023-04-07T07:00:27;101483.59;;;3.46;52.00
46756;BME280;32506;52.826;-1.192;2023-04-07T07:02:54;101486.94;;;3.48;52.10
46756;BME280;32506;52.826;-1.192;2023-04-07T07:05:21;101481.50;;;3.49;51.88
46756;BME280;32506;52.826;-1.192;2023-04-07T07:07:48;101486.63;;;3.51;51.59
46756;BME280;32506;52.826;-1.192;2023-04-07T07:10:13;101488.16;;;3.53;51.76
46756;BME280;32506;52.826;-1.192;2023-04-07T07:12:39;101487.03;;;3.56;51.82
46756;BME280;32506;52.826;-1.192;2023-04-07T07:15:05;101491.22;;;3.59;51.73
46756;BME280;32506;52.826;-1.192;2023-04-07T07:17:30;101496.19;;;3.62;51.66
46756;BME280;32506;52.826;-1.192;2023-04-07T07:19:56;101487.97;;;3.65;51.55
46756;BME280;32506;52.826;-1.192;2023-04-07T07:22:21;101500.06;;;3.67;51.90
46756;BME280;32506;52.826;-1.192;2023-04-07T07:24:47;101500.63;;;3.71;51.40
46756;BME280;32506;52.826;-1.192;2023-04-07T07:27:12;101499.50;;;3.74;51.49
46756;BME280;32506;52.826;-1.192;2023-04-07T07:29:38;101498.22;;;3.78;51.78
46756;BME280;32506;52.826;-1.192;2023-04-07T07:32:03;101496.25;;;3.80;51.60
46756;BME280;32506;52.826;-1.192;2023-04-07T07:34:29;101499.44;;;3.83;51.95
46756;BME280;32506;52.826;-1.192;2023-04-07T07:36:54;101499.16;;;3.86;52.17
46756;BME280;32506;52.826;-1.192;2023-04-07T07:39:20;101505.00;;;3.90;52.00
46756;BME280;32506;52.826;-1.192;2023-04-07T07:41:45;101507.19;;;3.95;52.33
46756;BME280;32506;52.826;-1.192;2023-04-07T07:44:11;101508.59;;;3.99;52.45
46756;BME280;32506;52.826;-1.192;2023-04-07T07:46:36;101501.16;;;4.02;52.88
46756;BME280;32506;52.826;-1.192;2023-04-07T07:49:02;101502.38;;;4.08;52.58
46756;BME280;32506;52.826;-1.192;2023-04-07T07:51:30;101508.06;;;4.13;53.16
46756;BME280;32506;52.826;-1.192;2023-04-07T07:53:55;101510.13;;;4.19;53.44
46756;BME280;32506;52.826;-1.192;2023-04-07T07:56:21;101506.91;;;4.26;54.14
46756;BME280;32506;52.826;-1.192;2023-04-07T07:58:46;101509.75;;;4.32;54.10
46756;BME280;32506;52.826;-1.192;2023-04-07T08:01:12;101509.03;;;4.40;54.91
46756;BME280;32506;52.826;-1.192;2023-04-07T08:03:38;101506.63;;;4.47;55.24
46756;BME280;32506;52.826;-1.192;2023-04-07T08:06:03;101503.06;;;4.56;55.18
46756;BME280;32506;52.826;-1.192;2023-04-07T08:08:32;101516.38;;;4.64;55.72
46756;BME280;32506;52.826;-1.192;2023-04-07T08:10:58;101517.16;;;4.75;56.49
46756;BME280;32506;52.826;-1.192;2023-04-07T08:13:23;101514.41;;;4.84;57.17
46756;BME280;32506;52.826;-1.192;2023-04-07T08:15:49;101517.69;;;4.96;57.51
46756;BME280;32506;52.826;-1.192;2023-04-07T08:18:15;101520.75;;;5.10;57.88
46756;BME280;32506;52.826;-1.192;2023-04-07T08:20:40;101519.38;;;5.24;58.46
46756;BME280;32506;52.826;-1.192;2023-04-07T08:23:10;101518.00;;;5.37;59.30
46756;BME280;32506;52.826;-1.192;2023-04-07T08:25:52;101517.94;;;5.55;59.51
46756;BME280;32506;52.826;-1.192;2023-04-07T08:28:18;101532.94;;;5.73;59.73
46756;BME280;32506;52.826;-1.192;2023-04-07T08:30:45;101525.09;;;5.90;59.84
46756;BME280;32506;52.826;-1.192;2023-04-07T08:33:11;101521.56;;;6.07;60.48
46756;BME280;32506;52.826;-1.192;2023-04-07T08:35:58;101524.09;;;6.25;60.33
46756;BME280;32506;52.826;-1.192;2023-04-07T08:38:38;101526.16;;;6.48;60.48
46756;BME280;32506;52.826;-1.192;2023-04-07T08:41:11;101528.34;;;6.69;61.47
46756;BME280;32506;52.826;-1.192;2023-04-07T08:43:38;101528.88;;;6.89;61.58
46756;BME280;32506;52.826;-1.192;2023-04-07T08:46:08;101525.06;;;7.08;61.82
46756;BME280;32506;52.826;-1.192;2023-04-07T08:48:36;101521.72;;;7.31;61.61
46756;BME280;32506;52.826;-1.192;2023-04-07T08:51:05;101525.50;;;7.53;61.59
46756;BME280;32506;52.826;-1.192;2023-04-07T08:53:39;101525.78;;;7.75;62.10
46756;BME280;32506;52.826;-1.192;2023-04-07T08:56:06;101533.19;;;7.96;62.04
46756;BME280;32506;52.826;-1.192;2023-04-07T08:58:34;101527.94;;;8.19;62.06
46756;BME280;32506;52.826;-1.192;2023-04-07T09:01:03;101531.66;;;8.41;62.84
46756;BME280;32506;52.826;-1.192;2023-04-07T09:03:30;101534.38;;;8.64;62.79
46756;BME280;32506;52.826;-1.192;2023-04-07T09:05:57;101531.72;;;8.87;62.89
46756;BME280;32506;52.826;-1.192;2023-04-07T09:08:24;101530.69;;;9.12;62.82
46756;BME280;32506;52.826;-1.192;2023-04-07T09:10:49;101522.66;;;9.35;62.92
46756;BME280;32506;52.826;-1.192;2023-04-07T09:13:15;101527.75;;;9.60;63.25
46756;BME280;32506;52.826;-1.192;2023-04-07T09:15:41;101529.31;;;9.84;63.23
46756;BME280;32506;52.826;-1.192;2023-04-07T09:18:06;101526.38;;;10.08;63.17
46756;BME280;32506;52.826;-1.192;2023-04-07T09:20:58;101526.31;;;10.38;63.11
46756;BME280;32506;52.826;-1.192;2023-04-07T09:23:35;101516.94;;;10.64;63.20
46756;BME280;32506;52.826;-1.192;2023-04-07T09:28:58;101520.69;;;11.20;63.08
46756;BME280;32506;52.826;-1.192;2023-04-07T09:31:43;101521.34;;;11.50;62.91
46756;BME280;32506;52.826;-1.192;2023-04-07T09:34:24;101521.31;;;11.79;62.88
46756;BME280;32506;52.826;-1.192;2023-04-07T09:36:50;101520.00;;;12.03;62.95
46756;BME280;32506;52.826;-1.192;2023-04-07T09:39:15;101513.09;;;12.29;62.83
46756;BME280;32506;52.826;-1.192;2023-04-07T09:41:41;101520.19;;;12.56;62.51
46756;BME280;32506;52.826;-1.192;2023-04-07T09:44:06;101520.44;;;12.82;62.29
46756;BME280;32506;52.826;-1.192;2023-04-07T09:46:32;101525.19;;;13.06;62.30
46756;BME280;32506;52.826;-1.192;2023-04-07T09:49:02;101522.50;;;13.33;62.42
46756;BME280;32506;52.826;-1.192;2023-04-07T09:51:31;101514.66;;;13.58;61.88
46756;BME280;32506;52.826;-1.192;2023-04-07T09:53:58;101514.78;;;13.84;61.69
46756;BME280;32506;52.826;-1.192;2023-04-07T09:56:23;101519.25;;;14.10;61.29
46756;BME280;32506;52.826;-1.192;2023-04-07T09:58:50;101520.38;;;14.34;61.07
46756;BME280;32506;52.826;-1.192;2023-04-07T10:01:16;101517.72;;;14.59;60.81
46756;BME280;32506;52.826;-1.192;2023-04-07T10:03:43;101510.78;;;14.84;60.92
46756;BME280;32506;52.826;-1.192;2023-04-07T10:06:08;101511.81;;;15.08;60.74
46756;BME280;32506;52.826;-1.192;2023-04-07T10:08:36;101505.84;;;15.31;60.46
46756;BME280;32506;52.826;-1.192;2023-04-07T10:11:02;101504.38;;;15.54;59.66
46756;BME280;32506;52.826;-1.192;2023-04-07T10:13:30;101505.59;;;15.76;59.34
46756;BME280;32506;52.826;-1.192;2023-04-07T10:15:59;101506.75;;;15.99;59.20
46756;BME280;32506;52.826;-1.192;2023-04-07T10:18:31;101508.16;;;16.20;58.70
46756;BME280;32506;52.826;-1.192;2023-04-07T10:21:00;101501.69;;;16.40;58.55
46756;BME280;32506;52.826;-1.192;2023-04-07T10:26:22;101499.81;;;16.83;58.18
46756;BME280;32506;52.826;-1.192;2023-04-07T10:28:54;101503.84;;;17.04;57.99
46756;BME280;32506;52.826;-1.192;2023-04-07T10:31:21;101499.97;;;17.23;57.47
46756;BME280;32506;52.826;-1.192;2023-04-07T10:33:48;101505.50;;;17.40;57.04
46756;BME280;32506;52.826;-1.192;2023-04-07T10:36:13;101501.25;;;17.56;56.45
46756;BME280;32506;52.826;-1.192;2023-04-07T10:38:39;101496.66;;;17.69;55.71
46756;BME280;32506;52.826;-1.192;2023-04-07T10:41:35;101499.91;;;17.83;55.34
46756;BME280;32506;52.826;-1.192;2023-04-07T10:44:02;101510.34;;;17.91;55.43
46756;BME280;32506;52.826;-1.192;2023-04-07T10:49:13;101507.59;;;18.15;55.32
46756;BME280;32506;52.826;-1.192;2023-04-07T10:51:39;101510.03;;;18.28;55.43
46756;BME280;32506;52.826;-1.192;2023-04-07T10:54:21;101505.22;;;18.47;55.26
46756;BME280;32506;52.826;-1.192;2023-04-07T11:02:38;101497.41;;;18.97;54.80
46756;BME280;32506;52.826;-1.192;2023-04-07T11:05:04;101507.16;;;19.15;54.78
46756;BME280;32506;52.826;-1.192;2023-04-07T11:07:48;101496.06;;;19.33;54.72
46756;BME280;32506;52.826;-1.192;2023-04-07T11:10:21;101490.63;;;19.50;54.55
46756;BME280;32506;52.826;-1.192;2023-04-07T11:13:01;101495.47;;;19.70;54.30
46756;BME280;32506;52.826;-1.192;2023-04-07T11:15:27;101490.00;;;19.87;54.51
46756;BME280;32506;52.826;-1.192;2023-04-07T11:18:16;101498.94;;;20.10;53.93
46756;BME280;32506;52.826;-1.192;2023-04-07T11:20:53;101491.25;;;20.24;53.72
46756;BME280;32506;52.826;-1.192;2023-04-07T11:23:20;101491.69;;;20.43;53.47
46756;BME280;32506;52.826;-1.192;2023-04-07T11:25:49;101495.91;;;20.61;53.45
46756;BME280;32506;52.826;-1.192;2023-04-07T11:28:15;101487.94;;;20.76;53.21
46756;BME280;32506;52.826;-1.192;2023-04-07T11:30:48;101500.03;;;20.96;53.35
46756;BME280;32506;52.826;-1.192;2023-04-07T11:33:17;101489.59;;;21.15;53.15
46756;BME280;32506;52.826;-1.192;2023-04-07T11:35:50;101497.28;;;21.34;52.51
46756;BME280;32506;52.826;-1.192;2023-04-07T11:38:16;101495.19;;;21.51;52.29
46756;BME280;32506;52.826;-1.192;2023-04-07T11:40:42;101495.59;;;21.65;52.09
46756;BME280;32506;52.826;-1.192;2023-04-07T11:43:15;101490.50;;;21.84;51.50
46756;BME280;32506;52.826;-1.192;2023-04-07T11:45:41;101487.28;;;21.98;51.29
46756;BME280;32506;52.826;-1.192;2023-04-07T11:48:27;101482.16;;;22.17;50.83
46756;BME280;32506;52.826;-1.192;2023-04-07T11:50:53;101491.97;;;22.28;51.21
46756;BME280;32506;52.826;-1.192;2023-04-07T11:53:53;101482.78;;;22.50;50.73
46756;BME280;32506;52.826;-1.192;2023-04-07T11:56:19;101492.84;;;22.59;49.99
46756;BME280;32506;52.826;-1.192;2023-04-07T11:58:52;101495.59;;;22.75;49.92
46756;BME280;32506;52.826;-1.192;2023-04-07T12:01:18;101480.31;;;22.84;49.55
46756;BME280;32506;52.826;-1.192;2023-04-07T12:04:01;101486.03;;;22.98;49.06
46756;BME280;32506;52.826;-1.192;2023-04-07T12:06:31;101486.56;;;23.05;49.15
46756;BME280;32506;52.826;-1.192;2023-04-07T12:09:06;101492.31;;;23.14;48.32
46756;BME280;32506;52.826;-1.192;2023-04-07T12:11:32;101480.56;;;23.24;48.52
46756;BME280;32506;52.826;-1.192;2023-04-07T12:13:59;101487.06;;;23.33;48.76
46756;BME280;32506;52.826;-1.192;2023-04-07T12:16:25;101484.56;;;23.47;48.33
46756;BME280;32506;52.826;-1.192;2023-04-07T12:18:51;101484.25;;;23.59;48.46
46756;BME280;32506;52.826;-1.192;2023-04-07T12:21:17;101488.03;;;23.73;48.06
46756;BME280;32506;52.826;-1.192;2023-04-07T12:23:44;101487.41;;;23.87;48.15
46756;BME280;32506;52.826;-1.192;2023-04-07T12:26:10;101475.63;;;24.02;47.93
46756;BME280;32506;52.826;-1.192;2023-04-07T12:28:36;101482.09;;;24.16;47.93
46756;BME280;32506;52.826;-1.192;2023-04-07T12:31:02;101477.09;;;24.28;47.68
46756;BME280;32506;52.826;-1.192;2023-04-07T12:33:28;101479.97;;;24.42;47.43
46756;BME280;32506;52.826;-1.192;2023-04-07T12:35:54;101478.53;;;24.55;47.45
46756;BME280;32506;52.826;-1.192;2023-04-07T12:38:19;101476.28;;;24.68;47.02
46756;BME280;32506;52.826;-1.192;2023-04-07T12:40:45;101482.16;;;24.80;47.22
46756;BME280;32506;52.826;-1.192;2023-04-07T12:43:11;101476.31;;;24.92;46.71
46756;BME280;32506;52.826;-1.192;2023-04-07T12:45:36;101478.66;;;25.04;46.67
46756;BME280;32506;52.826;-1.192;2023-04-07T12:48:02;101475.25;;;25.17;46.61
46756;BME280;32506;52.826;-1.192;2023-04-07T12:50:28;101473.22;;;25.28;46.30
46756;BME280;32506;52.826;-1.192;2023-04-07T12:52:56;101473.34;;;25.42;46.60
46756;BME280;32506;52.826;-1.192;2023-04-07T12:55:23;101480.84;;;25.55;46.42
46756;BME280;32506;52.826;-1.192;2023-04-07T12:57:48;101476.38;;;25.65;45.85
46756;BME280;32506;52.826;-1.192;2023-04-07T13:00:14;101482.50;;;25.75;45.76
46756;BME280;32506;52.826;-1.192;2023-04-07T13:02:40;101477.22;;;25.84;45.42
46756;BME280;32506;52.826;-1.192;2023-04-07T13:05:06;101488.84;;;25.95;45.30
46756;BME280;32506;52.826;-1.192;2023-04-07T13:07:32;101469.84;;;26.04;45.32
46756;BME280;32506;52.826;-1.192;2023-04-07T13:09:59;101480.66;;;26.14;45.12
46756;BME280;32506;52.826;-1.192;2023-04-07T13:12:24;101483.25;;;26.24;45.45
46756;BME280;32506;52.826;-1.192;2023-04-07T13:14:50;101481.47;;;26.34;44.78